Encruzilhada, Brazil
Current Conditions -  °F | °C
As of 12:00 PM on Thursday 30 Oct 2014 (Local Time) from SBQV Reporting Station
Overcast Overcast  
Wind Chill: 72°   Ceiling: 7000
Heat Index: 72°   Visibility: 6mi
Dew Point: 68°   Wind: 8mph
Humidity: 88%   Direction: 40°NE
Pressure: 30.12"   Gusts: NA
Location:  15.53°S, 40.91°W
Report Text: SBQV 301500Z 04007KT 9999 SCT013 OVC070 22/20 Q1020
Loading
Personal Weather Stations






























Interactive Weather Map New forecast layout! Learn more

10-Day Weather Forecast

Advertisements
Track Severe Weather on mobile